createdAt,value
2022-10-05T00:00:00.865Z,100874.67
2022-10-05T00:02:06.702Z,100873.27
2022-10-05T00:04:12.221Z,100875.12
2022-10-05T00:06:17.669Z,100876.03
2022-10-05T00:08:22.723Z,100876.71
2022-10-05T00:10:27.781Z,100873.23
2022-10-05T00:12:32.986Z,100872.17
2022-10-05T00:14:38.771Z,100868.66
2022-10-05T00:16:44.522Z,100874.61
2022-10-05T00:18:51.096Z,100877.75
2022-10-05T00:20:56.344Z,100869.77
2022-10-05T00:23:01.398Z,100866.33
2022-10-05T00:25:06.754Z,100867.87
2022-10-05T00:27:12.293Z,100864.69
2022-10-05T00:29:17.437Z,100872.32
2022-10-05T00:31:22.642Z,100869.89
2022-10-05T00:33:28.293Z,100864.09
2022-10-05T00:35:33.455Z,100858.62
2022-10-05T00:37:38.615Z,100857.8
2022-10-05T00:39:43.683Z,100852.98
2022-10-05T00:41:48.962Z,100850.48
2022-10-05T00:43:57.083Z,100851.67
2022-10-05T00:46:02.442Z,100851.8
2022-10-05T00:48:08.156Z,100848.93
2022-10-05T00:50:16.167Z,100851.27
2022-10-05T00:52:21.295Z,100852.84
2022-10-05T00:54:26.756Z,100854.38
2022-10-05T00:56:31.968Z,100860.77
2022-10-05T00:58:37.126Z,100868.94
2022-10-05T01:00:42.603Z,100871.58
2022-10-05T01:02:48.252Z,100865.62
2022-10-05T01:04:53.887Z,100872.86
2022-10-05T01:06:59.109Z,100875.78
2022-10-05T01:09:04.443Z,100877.02
2022-10-05T01:11:10.046Z,100880.23
2022-10-05T01:13:15.750Z,100875.53
2022-10-05T01:15:20.938Z,100872.81
2022-10-05T01:17:26.258Z,100866.38
2022-10-05T01:19:31.678Z,100863.34
2022-10-05T01:21:36.932Z,100864.98
2022-10-05T01:23:42.083Z,100867.04
2022-10-05T01:25:47.799Z,100862.67
2022-10-05T01:27:52.902Z,100853.88
2022-10-05T01:29:58.379Z,100858.8
2022-10-05T01:32:03.419Z,100865.16
2022-10-05T01:34:12.691Z,100870.17
2022-10-05T01:36:18.197Z,100873.91
2022-10-05T01:38:23.666Z,100875.59
2022-10-05T01:40:29.473Z,100872.42
2022-10-05T01:42:34.761Z,100873.01
2022-10-05T01:44:40.131Z,100869.73
2022-10-05T01:46:46.101Z,100872.22
2022-10-05T01:48:53.096Z,100874.06
2022-10-05T01:50:58.182Z,100870.52
2022-10-05T01:53:03.262Z,100867.88
2022-10-05T01:55:08.585Z,100866.15
2022-10-05T01:57:13.591Z,100863.76
2022-10-05T01:59:18.624Z,100856.34
2022-10-05T02:01:24.552Z,100858.66
2022-10-05T02:03:30.234Z,100864.69
2022-10-05T02:05:35.359Z,100872.81
2022-10-05T02:07:40.448Z,100878.16
2022-10-05T02:09:46.051Z,100883.1
2022-10-05T02:11:51.468Z,100886.03
2022-10-05T02:13:56.707Z,100883.47
2022-10-05T02:16:02.027Z,100880.8
2022-10-05T02:18:08.730Z,100884.45
2022-10-05T02:20:13.978Z,100881.03
2022-10-05T02:22:19.500Z,100877.61
2022-10-05T02:24:24.894Z,100871.3
2022-10-05T02:26:30.095Z,100864.19
2022-10-05T02:28:35.532Z,100866.58
2022-10-05T02:30:41.045Z,100855.22
2022-10-05T02:32:46.411Z,100854.45
2022-10-05T02:34:52.022Z,100851.95
2022-10-05T02:36:57.576Z,100842.79
2022-10-05T02:39:02.888Z,100830.05
2022-10-05T02:41:08.061Z,100814.03
2022-10-05T02:43:13.545Z,100812.36
2022-10-05T02:45:18.455Z,100820.05
2022-10-05T02:47:23.474Z,100821.86
2022-10-05T02:49:28.790Z,100825.27
2022-10-05T02:51:34.251Z,100829.56
2022-10-05T02:53:39.068Z,100830.4
2022-10-05T02:55:44.449Z,100831.39
2022-10-05T02:57:49.507Z,100837.83
2022-10-05T02:59:54.871Z,100840.19
2022-10-05T03:01:59.823Z,100843.06
2022-10-05T03:04:05.729Z,100836.05
2022-10-05T03:06:11.469Z,100839.98
2022-10-05T03:08:16.838Z,100840.92
2022-10-05T03:10:22.222Z,100836.73
2022-10-05T03:12:27.292Z,100831.28
2022-10-05T03:14:32.583Z,100837.47
2022-10-05T03:16:37.726Z,100852.73
2022-10-05T03:18:42.864Z,100849.52
2022-10-05T03:20:48.220Z,100845.73
2022-10-05T03:22:53.715Z,100863.77
2022-10-05T03:24:59.217Z,100871.11
2022-10-05T03:27:04.314Z,100871.77
2022-10-05T03:29:10.008Z,100863.5
2022-10-05T03:31:15.742Z,100860.76
2022-10-05T03:33:21.002Z,100857.86
2022-10-05T03:35:26.751Z,100854.02
2022-10-05T03:37:31.985Z,100859.61
2022-10-05T03:39:37.199Z,100867.34
2022-10-05T03:41:42.786Z,100865.18
2022-10-05T03:43:48.140Z,100863.44
2022-10-05T03:45:54.058Z,100858.85
2022-10-05T03:48:03.055Z,100863.48
2022-10-05T03:50:23.311Z,100857.35
2022-10-05T03:52:31.269Z,100847.39
2022-10-05T03:54:42.855Z,100848.22
2022-10-05T03:56:49.210Z,100841.39
2022-10-05T03:58:54.726Z,100837.17
2022-10-05T04:00:59.957Z,100827.88
2022-10-05T04:03:05.394Z,100830.63
2022-10-05T04:05:10.781Z,100839.66
2022-10-05T04:07:15.985Z,100842.47
2022-10-05T04:09:22.554Z,100843.95
2022-10-05T04:11:27.800Z,100839.2
2022-10-05T04:13:33.002Z,100838.05
2022-10-05T04:15:38.217Z,100839.86
2022-10-05T04:17:46.762Z,100835.63
2022-10-05T04:19:58.442Z,100833.59
2022-10-05T04:22:03.702Z,100827.89
2022-10-05T04:24:09.099Z,100821.56
2022-10-05T04:26:14.694Z,100819.5
2022-10-05T04:28:19.972Z,100816.29
2022-10-05T04:30:25.318Z,100815.58
2022-10-05T04:32:30.516Z,100814.31
2022-10-05T04:34:35.740Z,100826.91
2022-10-05T04:36:42.325Z,100832.7
2022-10-05T04:38:48.631Z,100834
2022-10-05T04:40:54.059Z,100832.77
2022-10-05T04:42:59.421Z,100835.51
2022-10-05T04:45:05.117Z,100834.23
2022-10-05T04:47:12.406Z,100835.84
2022-10-05T04:49:18.401Z,100843.95
2022-10-05T04:51:24.376Z,100844.16
2022-10-05T04:53:29.871Z,100841.41
2022-10-05T04:55:35.535Z,100848.66
2022-10-05T04:57:41.591Z,100843.81
2022-10-05T04:59:47.694Z,100848.4
2022-10-05T05:01:53.805Z,100852.09
2022-10-05T05:03:59.734Z,100851.03
2022-10-05T05:06:18.777Z,100845.04
2022-10-05T05:08:25.056Z,100843.22
2022-10-05T05:10:31.345Z,100851.3
2022-10-05T05:12:38.026Z,100856.22
2022-10-05T05:14:44.301Z,100860.22
2022-10-05T05:16:51.489Z,100860.28
2022-10-05T05:18:57.019Z,100860.84
2022-10-05T05:21:03.210Z,100865.74
2022-10-05T05:23:09.686Z,100870.5
2022-10-05T05:25:15.879Z,100870.64
2022-10-05T05:27:21.908Z,100869.84
2022-10-05T05:29:27.448Z,100879.81
2022-10-05T05:31:33.910Z,100880.77
2022-10-05T05:33:40.579Z,100879.73
2022-10-05T05:35:47.232Z,100878.23
2022-10-05T05:37:53.352Z,100878.53
2022-10-05T05:39:59.556Z,100871.39
2022-10-05T05:42:05.154Z,100874.86
2022-10-05T05:44:11.661Z,100875.25
2022-10-05T05:46:18.025Z,100874.32
2022-10-05T05:48:25.605Z,100866.34
2022-10-05T05:50:32.941Z,100871
2022-10-05T05:52:38.644Z,100875.7
2022-10-05T05:54:44.117Z,100877.59
2022-10-05T05:56:50.586Z,100872.95
2022-10-05T05:58:56.939Z,100863.16
2022-10-05T06:01:02.610Z,100859.86
2022-10-05T06:03:09.019Z,100855.17
2022-10-05T06:05:15.678Z,100847.99
2022-10-05T06:07:23.752Z,100854.34
2022-10-05T06:09:35.572Z,100860.13
2022-10-05T06:11:41.893Z,100861.95
2022-10-05T06:13:48.104Z,100864.12
2022-10-05T06:15:54.471Z,100869.88
2022-10-05T06:18:00.862Z,100867.19
2022-10-05T06:20:07.321Z,100863.81
2022-10-05T06:22:13.176Z,100864.74
2022-10-05T06:24:19.082Z,100866.77
2022-10-05T06:26:30.488Z,100866.55
2022-10-05T06:28:36.240Z,100865.27
2022-10-05T06:30:42.038Z,100861.47
2022-10-05T06:32:47.724Z,100864.95
2022-10-05T06:34:53.229Z,100865.88
2022-10-05T06:36:59.024Z,100859.75
2022-10-05T06:39:04.003Z,100851.16
2022-10-05T06:41:09.927Z,100847.67
2022-10-05T06:43:15.920Z,100839.86
2022-10-05T06:45:22.112Z,100846.48
2022-10-05T06:47:28.121Z,100855.9
2022-10-05T06:49:34.334Z,100864.3
2022-10-05T06:51:41.560Z,100866.2
2022-10-05T06:53:47.662Z,100851.67
2022-10-05T06:55:53.979Z,100838.47
2022-10-05T06:58:00.555Z,100843.38
2022-10-05T07:00:09.775Z,100852.77
2022-10-05T07:02:16.023Z,100862.44
2022-10-05T07:04:24.902Z,100863.73
2022-10-05T07:06:31.266Z,100860.75
2022-10-05T07:08:37.450Z,100862.28
2022-10-05T07:10:43.638Z,100860.17
2022-10-05T07:12:49.784Z,100862.88
2022-10-05T07:14:55.937Z,100868.59
2022-10-05T07:17:02.430Z,100875.39
2022-10-05T07:19:14.366Z,100869.89
2022-10-05T07:21:20.522Z,100868.91
2022-10-05T07:23:26.850Z,100865.2
2022-10-05T07:25:33.980Z,100862.5
2022-10-05T07:27:40.159Z,100861.23
2022-10-05T07:29:46.136Z,100855.86
2022-10-05T07:31:52.067Z,100853.24
2022-10-05T07:33:58.651Z,100846.46
2022-10-05T07:36:08.081Z,100841.34
2022-10-05T07:38:14.168Z,100839.14
2022-10-05T07:40:23.965Z,100851.97
2022-10-05T07:42:30.076Z,100849.34
2022-10-05T07:44:37.527Z,100846.67
2022-10-05T07:46:43.620Z,100842.13
2022-10-05T07:48:51.209Z,100846.81
2022-10-05T07:50:58.564Z,100837.56
2022-10-05T07:53:04.760Z,100833.44
2022-10-05T07:55:10.909Z,100827.09
2022-10-05T07:57:17.046Z,100827.64
2022-10-05T07:59:23.400Z,100822.3
2022-10-05T08:01:29.807Z,100822.08
2022-10-05T08:03:36.249Z,100826.42
2022-10-05T08:05:42.873Z,100824.29
2022-10-05T08:07:49.288Z,100815.91
2022-10-05T08:09:57.066Z,100813.86
2022-10-05T08:12:04.017Z,100815.92
2022-10-05T08:14:11.067Z,100818.41
2022-10-05T08:16:17.660Z,100814.71
2022-10-05T08:18:24.028Z,100812.05
2022-10-05T08:20:30.071Z,100815.41
2022-10-05T08:22:36.355Z,100814.22
2022-10-05T08:24:42.740Z,100811.66
2022-10-05T08:26:48.571Z,100807.66
2022-10-05T08:28:54.741Z,100809.49
2022-10-05T08:31:01.150Z,100807.84
2022-10-05T08:33:07.389Z,100811.38
2022-10-05T08:35:13.903Z,100804.77
2022-10-05T08:37:20.407Z,100806.72
2022-10-05T08:39:26.585Z,100804.03
2022-10-05T08:41:32.909Z,100799.55
2022-10-05T08:43:39.066Z,100801.17
2022-10-05T08:45:45.457Z,100800.64
2022-10-05T08:47:51.752Z,100799.22
2022-10-05T08:49:57.841Z,100794.45
2022-10-05T08:52:04.315Z,100802.55
2022-10-05T08:54:10.349Z,100799.8
2022-10-05T08:56:25.179Z,100796.19
2022-10-05T08:58:33.898Z,100799.91
2022-10-05T09:00:39.930Z,100801.52
2022-10-05T09:02:47.082Z,100800.05
2022-10-05T09:04:52.719Z,100798.95
2022-10-05T09:06:58.719Z,100803.88
2022-10-05T09:09:04.728Z,100801.56
2022-10-05T09:11:10.916Z,100798.94
2022-10-05T09:13:16.814Z,100798.3
2022-10-05T09:15:27.788Z,100795.36
2022-10-05T09:17:39.406Z,100790.98
2022-10-05T09:19:45.659Z,100794.09
2022-10-05T09:21:51.814Z,100794.69
2022-10-05T09:23:57.618Z,100800.99
2022-10-05T09:26:03.463Z,100795.03
2022-10-05T09:28:09.426Z,100795.45
2022-10-05T09:30:15.163Z,100790.27
2022-10-05T09:32:29.678Z,100783.69
2022-10-05T09:34:35.444Z,100786.69
2022-10-05T09:36:41.478Z,100783.7
2022-10-05T09:38:47.738Z,100775.98
2022-10-05T09:40:54.057Z,100771
2022-10-05T09:43:00.078Z,100773.56
2022-10-05T09:45:06.065Z,100770.17
2022-10-05T09:47:12.767Z,100769.05
2022-10-05T09:49:18.597Z,100772.63
2022-10-05T09:51:24.412Z,100772.54
2022-10-05T09:53:30.672Z,100762.73
2022-10-05T09:55:37.317Z,100766.8
2022-10-05T09:57:43.642Z,100770.71
2022-10-05T09:59:54.026Z,100766.5
2022-10-05T10:02:00.500Z,100772.05
2022-10-05T10:04:06.674Z,100777.56
2022-10-05T10:06:12.910Z,100778.95
2022-10-05T10:08:22.378Z,100780.99
2022-10-05T10:10:28.487Z,100781.47
2022-10-05T10:12:34.419Z,100775.23
2022-10-05T10:14:40.392Z,100769.72
2022-10-05T10:16:46.871Z,100768.77
2022-10-05T10:18:52.909Z,100769.55
2022-10-05T10:20:59.214Z,100772.34
2022-10-05T10:23:05.280Z,100777.03
2022-10-05T10:25:11.111Z,100773.18
2022-10-05T10:27:18.560Z,100781.88
2022-10-05T10:29:24.149Z,100782.99
2022-10-05T10:31:29.720Z,100783.34
2022-10-05T10:33:35.070Z,100777.14
2022-10-05T10:35:40.914Z,100780.3
2022-10-05T10:37:47.020Z,100776.91
2022-10-05T10:39:52.727Z,100776.95
2022-10-05T10:41:59.896Z,100774.56
2022-10-05T10:44:05.718Z,100785.84
2022-10-05T10:46:11.593Z,100791.39
2022-10-05T10:48:17.564Z,100784.39
2022-10-05T10:50:23.285Z,100776.75
2022-10-05T10:52:28.650Z,100774.48
2022-10-05T10:54:33.993Z,100776.26
2022-10-05T10:56:39.376Z,100770.81
2022-10-05T10:58:44.837Z,100765.04
2022-10-05T11:00:50.351Z,100761.61
2022-10-05T11:02:55.680Z,100754.95
2022-10-05T11:05:01.232Z,100746.56
2022-10-05T11:07:06.671Z,100744.84
2022-10-05T11:09:21.320Z,100731.04
2022-10-05T11:11:27.302Z,100732.2
2022-10-05T11:13:33.313Z,100731.27
2022-10-05T11:15:39.755Z,100718.72
2022-10-05T11:17:46.277Z,100720.47
2022-10-05T11:20:08.160Z,100712.85
2022-10-05T11:22:14.646Z,100708.92
2022-10-05T11:24:20.295Z,100706.54
2022-10-05T11:26:25.906Z,100712.06
2022-10-05T11:28:31.720Z,100719.71
2022-10-05T11:30:38.337Z,100725.47
2022-10-05T11:32:44.523Z,100724.78
2022-10-05T11:34:50.701Z,100726.17
2022-10-05T11:36:57.199Z,100724.88
2022-10-05T11:39:02.680Z,100718.19
2022-10-05T11:41:08.920Z,100713.09
2022-10-05T11:43:15.315Z,100708.78
2022-10-05T11:45:21.652Z,100713.7
2022-10-05T11:47:28.317Z,100710.61
2022-10-05T11:49:34.411Z,100711.29
2022-10-05T11:51:40.887Z,100714.1
2022-10-05T11:53:47.123Z,100712.08
2022-10-05T11:55:55.442Z,100709.53
2022-10-05T11:58:01.186Z,100710.72
2022-10-05T12:00:07.251Z,100703.07
2022-10-05T12:02:13.950Z,100703.9
2022-10-05T12:04:20.251Z,100706
2022-10-05T12:06:26.565Z,100712.36
2022-10-05T12:08:32.884Z,100714.78
2022-10-05T12:10:39.098Z,100705.72
2022-10-05T12:12:46.361Z,100704.08
2022-10-05T12:14:52.842Z,100704.89
2022-10-05T12:16:59.124Z,100703.94
2022-10-05T12:19:05.478Z,100705.77
2022-10-05T12:21:11.768Z,100714.16
2022-10-05T12:23:18.633Z,100711.86
2022-10-05T12:25:25.531Z,100709.14
2022-10-05T12:27:32.203Z,100706.16
2022-10-05T12:29:38.594Z,100708.99
2022-10-05T12:31:44.557Z,100706.47
2022-10-05T12:33:50.831Z,100705.94
2022-10-05T12:35:57.134Z,100701.02
2022-10-05T12:38:03.451Z,100693.92
2022-10-05T12:40:12.174Z,100694.8
2022-10-05T12:42:18.443Z,100688.95
2022-10-05T12:44:24.596Z,100689.11
2022-10-05T12:46:31.000Z,100687.03
2022-10-05T12:48:37.253Z,100688.05
2022-10-05T12:50:44.001Z,100691.04
2022-10-05T12:52:50.072Z,100693.3
2022-10-05T12:54:57.522Z,100695.67
2022-10-05T12:57:04.033Z,100688.7
2022-10-05T12:59:10.406Z,100683.91
2022-10-05T13:01:16.763Z,100680.43
2022-10-05T13:03:23.645Z,100682.41
2022-10-05T13:05:30.697Z,100685.91
2022-10-05T13:07:37.074Z,100682.42
2022-10-05T13:09:43.422Z,100682.48
2022-10-05T13:11:50.158Z,100685.88
2022-10-05T13:13:56.490Z,100690.02
2022-10-05T13:16:02.651Z,100693.06
2022-10-05T13:18:09.753Z,100694.84
2022-10-05T13:20:17.237Z,100695.13
2022-10-05T13:22:23.649Z,100688.64
2022-10-05T13:24:30.496Z,100684.98
2022-10-05T13:26:36.939Z,100686.95
2022-10-05T13:28:43.263Z,100685.53
2022-10-05T13:30:49.577Z,100673.2
2022-10-05T13:32:55.337Z,100673.16
2022-10-05T13:35:11.336Z,100670.11
2022-10-05T13:37:17.974Z,100670.48
2022-10-05T13:39:24.264Z,100664.13
2022-10-05T13:41:30.797Z,100671.17
2022-10-05T13:45:45.396Z,100682.66
2022-10-05T13:47:56.332Z,100677.33
2022-10-05T13:50:03.712Z,100678.13
2022-10-05T13:52:10.890Z,100670.16
2022-10-05T13:54:20.156Z,100669.2
2022-10-05T13:56:26.928Z,100671.42
2022-10-05T13:58:33.159Z,100675.63
2022-10-05T14:00:39.541Z,100673.53
2022-10-05T14:02:46.241Z,100674.87
2022-10-05T14:04:52.892Z,100674.69
2022-10-05T14:06:59.233Z,100676.99
2022-10-05T14:09:06.066Z,100670.67
2022-10-05T14:11:12.959Z,100671.73
2022-10-05T14:13:20.717Z,100669.05
2022-10-05T14:15:28.009Z,100674.47
2022-10-05T14:17:34.964Z,100670.94
2022-10-05T14:19:41.238Z,100671.39
2022-10-05T14:21:47.563Z,100665.44
2022-10-05T14:23:53.900Z,100667.55
2022-10-05T14:26:04.396Z,100665.42
2022-10-05T14:28:10.803Z,100664.08
2022-10-05T14:30:17.847Z,100660.03
2022-10-05T14:32:24.476Z,100661.39
2022-10-05T14:34:30.832Z,100661.16
2022-10-05T14:36:37.076Z,100662.63
2022-10-05T14:38:43.489Z,100663.48
2022-10-05T14:40:50.033Z,100665.77
2022-10-05T14:42:56.340Z,100658.52
2022-10-05T14:45:02.301Z,100663.11
2022-10-05T14:47:08.592Z,100662.73
2022-10-05T14:49:15.087Z,100655.45
2022-10-05T14:51:21.317Z,100652.19
2022-10-05T14:53:27.470Z,100652.94
2022-10-05T14:55:33.646Z,100651.17
2022-10-05T14:57:40.192Z,100648.3
2022-10-05T14:59:46.376Z,100651.89
2022-10-05T15:01:52.694Z,100653.75
2022-10-05T15:03:59.169Z,100651.94
2022-10-05T15:06:05.150Z,100658.65
2022-10-05T15:08:11.550Z,100654.57
2022-10-05T15:10:17.821Z,100653.19
2022-10-05T15:12:24.404Z,100650.47
2022-10-05T15:14:31.908Z,100650.61
2022-10-05T15:16:38.282Z,100649.25
2022-10-05T15:18:44.869Z,100642.04
2022-10-05T15:20:50.992Z,100639.76
2022-10-05T15:22:57.340Z,100637.87
2022-10-05T15:25:03.928Z,100640.48
2022-10-05T15:27:10.311Z,100641.58
2022-10-05T15:29:16.569Z,100634.95
2022-10-05T15:31:23.092Z,100633.03
2022-10-05T15:33:29.635Z,100634.23
2022-10-05T15:35:36.136Z,100634.16
2022-10-05T15:37:42.358Z,100636.05
2022-10-05T15:39:51.585Z,100630.48
2022-10-05T15:41:58.513Z,100628.06
2022-10-05T15:44:07.899Z,100624.31
2022-10-05T15:46:14.385Z,100620.06
2022-10-05T15:48:21.509Z,100626.33
2022-10-05T15:50:29.476Z,100624.78
2022-10-05T15:52:35.623Z,100625.73
2022-10-05T15:54:42.123Z,100625.35
2022-10-05T15:56:48.379Z,100624.51
2022-10-05T15:58:54.706Z,100625.63
2022-10-05T16:01:01.164Z,100624.45
2022-10-05T16:03:07.745Z,100621.75
2022-10-05T16:05:15.267Z,100620.93
2022-10-05T16:07:21.558Z,100617.25
2022-10-05T16:09:27.687Z,100620.52
2022-10-05T16:11:37.410Z,100619.8
2022-10-05T16:13:44.282Z,100619.52
2022-10-05T16:15:50.851Z,100627.46
2022-10-05T16:17:57.119Z,100634.3
2022-10-05T16:20:03.564Z,100634.29
2022-10-05T16:22:10.081Z,100634.5
2022-10-05T16:24:16.284Z,100631.91
2022-10-05T16:26:22.787Z,100634.85
2022-10-05T16:28:29.390Z,100639.63
2022-10-05T16:30:36.466Z,100631.55
2022-10-05T16:32:42.912Z,100631.59
2022-10-05T16:34:51.082Z,100632.22
2022-10-05T16:36:57.266Z,100625.65
2022-10-05T16:39:03.507Z,100616.64
2022-10-05T16:41:09.584Z,100625.09
2022-10-05T16:43:17.011Z,100623.2
2022-10-05T16:45:23.094Z,100629.8
2022-10-05T16:47:29.524Z,100624.06
2022-10-05T16:49:39.069Z,100626.88
2022-10-05T16:51:45.752Z,100627.75
2022-10-05T16:53:52.303Z,100625.3
2022-10-05T16:55:59.121Z,100618.98
2022-10-05T16:58:05.365Z,100621.13
2022-10-05T17:00:17.487Z,100614.94
2022-10-05T17:02:24.985Z,100617.83
2022-10-05T17:04:31.514Z,100617.2
2022-10-05T17:06:38.226Z,100616.77
2022-10-05T17:08:44.970Z,100620.03
2022-10-05T17:10:52.082Z,100616.92
2022-10-05T17:12:59.851Z,100608.89
2022-10-05T17:15:06.317Z,100610.24
2022-10-05T17:17:12.974Z,100607.28
2022-10-05T17:19:19.752Z,100604.07
2022-10-05T17:21:25.905Z,100600.88
2022-10-05T17:23:32.870Z,100597.2
2022-10-05T17:25:39.948Z,100598.68
2022-10-05T17:27:52.161Z,100599.55
2022-10-05T17:30:01.058Z,100602.55
2022-10-05T17:32:08.714Z,100603.73
2022-10-05T17:34:15.354Z,100604.48
2022-10-05T17:36:22.154Z,100602.75
2022-10-05T17:38:29.321Z,100598.88
2022-10-05T17:40:36.948Z,100598.14
2022-10-05T17:42:44.196Z,100599.88
2022-10-05T17:44:51.654Z,100594.09
2022-10-05T17:46:59.928Z,100595.88
2022-10-05T17:49:06.444Z,100598.17
2022-10-05T17:51:13.940Z,100601.8
2022-10-05T17:53:20.778Z,100604.55
2022-10-05T17:55:27.148Z,100598.61
2022-10-05T17:57:33.922Z,100598.16
2022-10-05T17:59:42.673Z,100600.36
2022-10-05T18:01:50.560Z,100602.73
2022-10-05T18:03:57.392Z,100601.89
2022-10-05T18:06:03.469Z,100593.06
2022-10-05T18:08:11.805Z,100593.09
2022-10-05T18:10:21.346Z,100591.73
2022-10-05T18:12:28.170Z,100590.98
2022-10-05T18:14:34.658Z,100585.67
2022-10-05T18:16:42.366Z,100588.17
2022-10-05T18:18:48.821Z,100585.94
2022-10-05T18:20:55.771Z,100581.97
2022-10-05T18:23:02.322Z,100586.73
2022-10-05T18:25:09.672Z,100587.8
2022-10-05T18:27:18.365Z,100584.36
2022-10-05T18:29:25.847Z,100580.73
2022-10-05T18:31:33.545Z,100577.41
2022-10-05T18:33:42.749Z,100573.63
2022-10-05T18:35:51.548Z,100574.77
2022-10-05T18:37:58.986Z,100578.95
2022-10-05T18:40:08.740Z,100568.93
2022-10-05T18:42:16.784Z,100566.29
2022-10-05T18:44:25.182Z,100571.91
2022-10-05T18:46:33.337Z,100567.21
2022-10-05T18:48:42.244Z,100573.31
2022-10-05T18:50:49.952Z,100570.1
2022-10-05T18:52:56.751Z,100571.73
2022-10-05T18:55:05.536Z,100569.5
2022-10-05T18:57:13.158Z,100573.45
2022-10-05T18:59:23.553Z,100572.22
2022-10-05T19:01:34.899Z,100561.31
2022-10-05T19:03:45.339Z,100564.47
2022-10-05T19:05:52.929Z,100561.95
2022-10-05T19:07:59.691Z,100565.02
2022-10-05T19:10:07.551Z,100568.09
2022-10-05T19:12:15.618Z,100568.83
2022-10-05T19:14:23.596Z,100572.05
2022-10-05T19:16:31.706Z,100575.17
2022-10-05T19:18:39.961Z,100575.84
2022-10-05T19:20:47.839Z,100575.62
2022-10-05T19:22:55.917Z,100579.69
2022-10-05T19:25:02.310Z,100586.38
2022-10-05T19:27:09.551Z,100588.08
2022-10-05T19:29:16.710Z,100584.36
2022-10-05T19:31:23.221Z,100576.83
2022-10-05T19:33:30.312Z,100571.66
2022-10-05T19:35:40.216Z,100568.38
2022-10-05T19:37:49.419Z,100569.46
2022-10-05T19:40:09.503Z,100561.7
2022-10-05T19:42:16.238Z,100561.62
2022-10-05T19:44:22.974Z,100565.27
2022-10-05T19:46:30.356Z,100570.48
2022-10-05T19:48:37.445Z,100568.48
2022-10-05T19:50:47.227Z,100567.77
2022-10-05T19:52:53.478Z,100567.16
2022-10-05T19:55:01.459Z,100564.05
2022-10-05T19:57:09.992Z,100569.89
2022-10-05T19:59:17.160Z,100569.35
2022-10-05T20:01:23.237Z,100565.3
2022-10-05T20:03:32.145Z,100563.35
2022-10-05T20:05:38.516Z,100570.73
2022-10-05T20:07:47.559Z,100572.37
2022-10-05T20:09:54.500Z,100573.5
2022-10-05T20:12:01.450Z,100572.16
2022-10-05T20:14:08.086Z,100568.51
2022-10-05T20:16:15.616Z,100574.64
2022-10-05T20:18:22.703Z,100574.63
2022-10-05T20:20:30.208Z,100576.2
2022-10-05T20:22:36.379Z,100576.53
2022-10-05T20:24:42.686Z,100577.8
2022-10-05T20:26:48.753Z,100583.64
2022-10-05T20:28:55.476Z,100583.12
2022-10-05T20:31:03.043Z,100584.81
2022-10-05T20:33:09.436Z,100584.19
2022-10-05T20:35:17.648Z,100587.55
2022-10-05T20:37:24.397Z,100580.36
2022-10-05T20:39:30.760Z,100586.22
2022-10-05T20:41:37.076Z,100585.38
2022-10-05T20:43:43.310Z,100588.87
2022-10-05T20:45:49.623Z,100588.69
2022-10-05T20:47:55.706Z,100591.38
2022-10-05T20:50:01.429Z,100592.91
2022-10-05T20:52:07.478Z,100590.6
2022-10-05T20:54:13.858Z,100598.89
2022-10-05T20:56:20.910Z,100601.28
2022-10-05T20:58:28.324Z,100602.48
2022-10-05T21:00:36.045Z,100596.3
2022-10-05T21:02:42.478Z,100599.82
2022-10-05T21:04:48.974Z,100599.2
2022-10-05T21:06:55.192Z,100597.09
2022-10-05T21:09:00.729Z,100601.64
2022-10-05T21:11:06.567Z,100603.84
2022-10-05T21:13:13.004Z,100606.81
2022-10-05T21:15:18.755Z,100601.64
2022-10-05T21:17:24.638Z,100605.9
2022-10-05T21:19:30.225Z,100605.68
2022-10-05T21:21:35.777Z,100606.02
2022-10-05T21:23:41.054Z,100608.46
2022-10-05T21:25:46.790Z,100603.76
2022-10-05T21:27:52.099Z,100606.19
2022-10-05T21:29:57.943Z,100609.03
2022-10-05T21:32:04.150Z,100608.16
2022-10-05T21:34:10.678Z,100607.53
2022-10-05T21:36:17.157Z,100608.95
2022-10-05T21:38:29.660Z,100607.08
2022-10-05T21:40:35.746Z,100608.3
2022-10-05T21:42:41.590Z,100608.95
2022-10-05T21:44:47.165Z,100607.16
2022-10-05T21:46:53.295Z,100607.9
2022-10-05T21:48:58.588Z,100605.22
2022-10-05T21:51:04.033Z,100608.77
2022-10-05T21:53:09.908Z,100609.58
2022-10-05T21:55:15.560Z,100610.5
2022-10-05T21:57:20.976Z,100617.73
2022-10-05T21:59:26.649Z,100614.75
2022-10-05T22:01:32.162Z,100618.38
2022-10-05T22:03:38.336Z,100621.14
2022-10-05T22:05:44.403Z,100618.91
2022-10-05T22:07:50.090Z,100618.52
2022-10-05T22:09:55.670Z,100620.08
2022-10-05T22:12:00.916Z,100622.39
2022-10-05T22:14:06.067Z,100621.33
2022-10-05T22:16:11.732Z,100619.3
2022-10-05T22:18:17.586Z,100620.7
2022-10-05T22:20:22.890Z,100619.97
2022-10-05T22:22:28.451Z,100621.5
2022-10-05T22:24:34.055Z,100619.39
2022-10-05T22:26:39.461Z,100624.71
2022-10-05T22:28:45.243Z,100623.24
2022-10-05T22:30:51.253Z,100625.56
2022-10-05T22:32:56.521Z,100626.72
2022-10-05T22:35:01.852Z,100623.68
2022-10-05T22:37:14.534Z,100624.06
2022-10-05T22:39:20.125Z,100628.56
2022-10-05T22:41:25.809Z,100625.67
2022-10-05T22:43:30.945Z,100627.41
2022-10-05T22:45:36.608Z,100627.82
2022-10-05T22:47:41.966Z,100632.71
2022-10-05T22:49:47.928Z,100631.39
2022-10-05T22:51:53.556Z,100629.05
2022-10-05T22:53:59.016Z,100631.27
2022-10-05T22:56:04.876Z,100631.02
2022-10-05T22:58:10.346Z,100638.22
2022-10-05T23:00:15.796Z,100641.14
2022-10-05T23:02:21.234Z,100647.58
2022-10-05T23:04:27.260Z,100644.5
2022-10-05T23:06:33.032Z,100651.55
2022-10-05T23:08:38.542Z,100643.86
2022-10-05T23:10:43.806Z,100648.94
2022-10-05T23:12:49.020Z,100650.75
2022-10-05T23:14:54.389Z,100648.27
2022-10-05T23:16:59.767Z,100653.83
2022-10-05T23:19:05.184Z,100647.52
2022-10-05T23:21:10.232Z,100652.91
2022-10-05T23:23:15.704Z,100651.39
2022-10-05T23:25:20.985Z,100653.14
2022-10-05T23:27:26.564Z,100654.73
2022-10-05T23:29:31.989Z,100658.94
2022-10-05T23:31:37.527Z,100662.66
2022-10-05T23:33:42.979Z,100662.08
2022-10-05T23:35:48.202Z,100660.33
2022-10-05T23:37:53.688Z,100661.47
2022-10-05T23:39:59.007Z,100663.8
2022-10-05T23:42:04.241Z,100663.2
2022-10-05T23:44:09.575Z,100664.97
2022-10-05T23:46:15.324Z,100663.06
2022-10-05T23:48:20.943Z,100662
2022-10-05T23:50:26.746Z,100665.31
2022-10-05T23:52:32.144Z,100660.23
2022-10-05T23:54:37.787Z,100659.08
2022-10-05T23:56:42.827Z,100657.03
2022-10-05T23:58:48.287Z,100661.72
